sensor_id;sensor_type;location;lat;lon;timestamp;temperature;humidity
24456;DHT22;12628;50.860;5.714;2022-12-18T00:01:31;-7.80;1.00
24456;DHT22;12628;50.860;5.714;2022-12-18T00:03:59;-7.80;1.00
24456;DHT22;12628;50.860;5.714;2022-12-18T00:06:28;-7.80;1.00
24456;DHT22;12628;50.860;5.714;2022-12-18T00:08:58;-7.80;99.90
24456;DHT22;12628;50.860;5.714;2022-12-18T00:11:28;-7.80;99.90
24456;DHT22;12628;50.860;5.714;2022-12-18T00:13:57;-7.80;99.90
24456;DHT22;12628;50.860;5.714;2022-12-18T00:16:26;-7.90;99.90
24456;DHT22;12628;50.860;5.714;2022-12-18T00:18:55;-8.00;99.90
24456;DHT22;12628;50.860;5.714;2022-12-18T00:21:26;-8.10;99.90
24456;DHT22;12628;50.860;5.714;2022-12-18T00:23:53;-8.20;99.90
24456;DHT22;12628;50.860;5.714;2022-12-18T00:26:23;-8.20;99.90
24456;DHT22;12628;50.860;5.714;2022-12-18T00:28:51;-8.10;1.00
24456;DHT22;12628;50.860;5.714;2022-12-18T00:31:20;-8.20;1.00
24456;DHT22;12628;50.860;5.714;2022-12-18T00:33:48;-8.20;99.90
24456;DHT22;12628;50.860;5.714;2022-12-18T00:36:18;-8.10;99.90
24456;DHT22;12628;50.860;5.714;2022-12-18T00:38:46;-8.10;99.90
24456;DHT22;12628;50.860;5.714;2022-12-18T00:41:15;-8.10;99.90
24456;DHT22;12628;50.860;5.714;2022-12-18T00:44:05;-8.20;22.10
24456;DHT22;12628;50.860;5.714;2022-12-18T00:46:32;-8.30;89.20
24456;DHT22;12628;50.860;5.714;2022-12-18T00:48:59;-8.40;25.10
24456;DHT22;12628;50.860;5.714;2022-12-18T00:51:26;-8.50;1.00
24456;DHT22;12628;50.860;5.714;2022-12-18T00:53:54;-8.50;99.90
24456;DHT22;12628;50.860;5.714;2022-12-18T00:56:21;-8.70;99.90
24456;DHT22;12628;50.860;5.714;2022-12-18T00:58:51;-8.80;1.00
24456;DHT22;12628;50.860;5.714;2022-12-18T01:01:20;-8.80;1.00
24456;DHT22;12628;50.860;5.714;2022-12-18T01:03:47;-8.70;62.90
24456;DHT22;12628;50.860;5.714;2022-12-18T01:06:15;-8.60;1.00
24456;DHT22;12628;50.860;5.714;2022-12-18T01:08:42;-8.50;1.00
24456;DHT22;12628;50.860;5.714;2022-12-18T01:11:11;-8.50;1.00
24456;DHT22;12628;50.860;5.714;2022-12-18T01:13:39;-8.60;1.00
24456;DHT22;12628;50.860;5.714;2022-12-18T01:16:07;-8.60;1.00
24456;DHT22;12628;50.860;5.714;2022-12-18T01:18:36;-8.70;99.90
24456;DHT22;12628;50.860;5.714;2022-12-18T01:21:06;-8.80;99.90
24456;DHT22;12628;50.860;5.714;2022-12-18T01:23:34;-8.80;99.90
24456;DHT22;12628;50.860;5.714;2022-12-18T01:26:05;-8.70;1.00
24456;DHT22;12628;50.860;5.714;2022-12-18T01:28:32;-8.70;1.00
24456;DHT22;12628;50.860;5.714;2022-12-18T01:31:10;-8.80;1.00
24456;DHT22;12628;50.860;5.714;2022-12-18T01:33:39;-8.70;1.00
24456;DHT22;12628;50.860;5.714;2022-12-18T01:36:06;-8.70;1.00
24456;DHT22;12628;50.860;5.714;2022-12-18T01:38:34;-8.70;1.00
24456;DHT22;12628;50.860;5.714;2022-12-18T01:41:02;-8.70;99.90
24456;DHT22;12628;50.860;5.714;2022-12-18T01:43:48;-8.70;99.90
24456;DHT22;12628;50.860;5.714;2022-12-18T01:46:17;-8.70;99.90
24456;DHT22;12628;50.860;5.714;2022-12-18T01:48:48;-8.80;99.90
24456;DHT22;12628;50.860;5.714;2022-12-18T01:51:16;-8.80;1.00
24456;DHT22;12628;50.860;5.714;2022-12-18T01:53:44;-8.80;99.90
24456;DHT22;12628;50.860;5.714;2022-12-18T01:56:14;-8.90;1.00
24456;DHT22;12628;50.860;5.714;2022-12-18T01:58:48;-9.00;1.00
24456;DHT22;12628;50.860;5.714;2022-12-18T02:01:18;-9.00;99.90
24456;DHT22;12628;50.860;5.714;2022-12-18T02:03:46;-8.90;99.90
24456;DHT22;12628;50.860;5.714;2022-12-18T02:06:18;-8.70;1.00
24456;DHT22;12628;50.860;5.714;2022-12-18T02:08:57;-8.50;1.00
24456;DHT22;12628;50.860;5.714;2022-12-18T02:11:35;-8.40;99.90
24456;DHT22;12628;50.860;5.714;2022-12-18T02:14:14;-8.30;1.00
24456;DHT22;12628;50.860;5.714;2022-12-18T02:16:47;-8.50;99.90
24456;DHT22;12628;50.860;5.714;2022-12-18T02:19:36;-8.50;1.00
24456;DHT22;12628;50.860;5.714;2022-12-18T02:22:15;-8.40;1.00
24456;DHT22;12628;50.860;5.714;2022-12-18T02:24:59;-8.10;99.90
24456;DHT22;12628;50.860;5.714;2022-12-18T02:27:30;-8.20;1.00
24456;DHT22;12628;50.860;5.714;2022-12-18T02:29:59;-8.20;99.90
24456;DHT22;12628;50.860;5.714;2022-12-18T02:32:31;-8.00;1.00
24456;DHT22;12628;50.860;5.714;2022-12-18T02:35:02;-8.10;99.90
24456;DHT22;12628;50.860;5.714;2022-12-18T02:37:31;-8.10;99.90
24456;DHT22;12628;50.860;5.714;2022-12-18T02:39:59;-8.10;99.90
24456;DHT22;12628;50.860;5.714;2022-12-18T02:42:29;-7.90;1.00
24456;DHT22;12628;50.860;5.714;2022-12-18T02:44:56;-8.00;99.90
24456;DHT22;12628;50.860;5.714;2022-12-18T02:47:26;-8.00;1.00
24456;DHT22;12628;50.860;5.714;2022-12-18T02:50:10;-8.00;1.00
24456;DHT22;12628;50.860;5.714;2022-12-18T02:52:48;-8.00;1.00
24456;DHT22;12628;50.860;5.714;2022-12-18T02:55:26;-8.10;99.90
24456;DHT22;12628;50.860;5.714;2022-12-18T02:58:00;-8.20;1.00
24456;DHT22;12628;50.860;5.714;2022-12-18T03:00:35;-8.30;1.00
24456;DHT22;12628;50.860;5.714;2022-12-18T03:03:07;-8.20;1.00
24456;DHT22;12628;50.860;5.714;2022-12-18T03:05:40;-8.30;1.00
24456;DHT22;12628;50.860;5.714;2022-12-18T03:08:13;-8.30;1.00
24456;DHT22;12628;50.860;5.714;2022-12-18T03:10:45;-8.30;1.00
24456;DHT22;12628;50.860;5.714;2022-12-18T03:13:19;-8.30;1.00
24456;DHT22;12628;50.860;5.714;2022-12-18T03:15:49;-8.30;99.90
24456;DHT22;12628;50.860;5.714;2022-12-18T03:18:19;-8.20;1.00
24456;DHT22;12628;50.860;5.714;2022-12-18T03:20:49;-8.20;99.90
24456;DHT22;12628;50.860;5.714;2022-12-18T03:23:24;-8.20;99.90
24456;DHT22;12628;50.860;5.714;2022-12-18T03:25:56;-8.20;97.50
24456;DHT22;12628;50.860;5.714;2022-12-18T03:28:27;-8.20;1.00
24456;DHT22;12628;50.860;5.714;2022-12-18T03:30:59;-8.10;1.00
24456;DHT22;12628;50.860;5.714;2022-12-18T03:33:30;-8.10;1.00
24456;DHT22;12628;50.860;5.714;2022-12-18T03:35:59;-8.20;99.90
24456;DHT22;12628;50.860;5.714;2022-12-18T03:38:26;-8.10;1.00
24456;DHT22;12628;50.860;5.714;2022-12-18T03:40:59;-8.10;99.90
24456;DHT22;12628;50.860;5.714;2022-12-18T03:43:36;-8.10;1.00
24456;DHT22;12628;50.860;5.714;2022-12-18T03:46:08;-8.20;1.00
24456;DHT22;12628;50.860;5.714;2022-12-18T03:48:41;-8.10;99.90
24456;DHT22;12628;50.860;5.714;2022-12-18T03:51:11;-8.20;1.00
24456;DHT22;12628;50.860;5.714;2022-12-18T03:53:45;-8.20;1.00
24456;DHT22;12628;50.860;5.714;2022-12-18T03:56:16;-8.10;1.00
24456;DHT22;12628;50.860;5.714;2022-12-18T03:58:46;-8.10;1.00
24456;DHT22;12628;50.860;5.714;2022-12-18T04:01:16;-8.20;1.00
24456;DHT22;12628;50.860;5.714;2022-12-18T04:03:46;-8.30;1.00
24456;DHT22;12628;50.860;5.714;2022-12-18T04:06:17;-8.40;1.00
24456;DHT22;12628;50.860;5.714;2022-12-18T04:08:45;-8.50;1.00
24456;DHT22;12628;50.860;5.714;2022-12-18T04:11:12;-8.50;1.00
24456;DHT22;12628;50.860;5.714;2022-12-18T04:13:40;-8.60;99.90
24456;DHT22;12628;50.860;5.714;2022-12-18T04:16:10;-8.50;1.00
24456;DHT22;12628;50.860;5.714;2022-12-18T04:18:37;-8.50;99.90
24456;DHT22;12628;50.860;5.714;2022-12-18T04:21:04;-8.40;1.00
24456;DHT22;12628;50.860;5.714;2022-12-18T04:23:31;-8.30;99.90
24456;DHT22;12628;50.860;5.714;2022-12-18T04:25:59;-8.20;1.00
24456;DHT22;12628;50.860;5.714;2022-12-18T04:28:26;-8.20;1.00
24456;DHT22;12628;50.860;5.714;2022-12-18T04:30:53;-8.10;1.00
24456;DHT22;12628;50.860;5.714;2022-12-18T04:33:21;-8.10;1.00
24456;DHT22;12628;50.860;5.714;2022-12-18T04:35:48;-8.10;99.90
24456;DHT22;12628;50.860;5.714;2022-12-18T04:38:16;-8.20;1.00
24456;DHT22;12628;50.860;5.714;2022-12-18T04:40:43;-8.30;99.90
24456;DHT22;12628;50.860;5.714;2022-12-18T04:43:10;-8.40;99.90
24456;DHT22;12628;50.860;5.714;2022-12-18T04:45:37;-8.50;99.90
24456;DHT22;12628;50.860;5.714;2022-12-18T04:48:05;-8.50;99.90
24456;DHT22;12628;50.860;5.714;2022-12-18T04:50:33;-8.40;1.00
24456;DHT22;12628;50.860;5.714;2022-12-18T04:53:01;-8.30;1.00
24456;DHT22;12628;50.860;5.714;2022-12-18T04:55:28;-8.30;1.00
24456;DHT22;12628;50.860;5.714;2022-12-18T04:57:55;-8.40;99.90
24456;DHT22;12628;50.860;5.714;2022-12-18T05:00:22;-8.50;1.00
24456;DHT22;12628;50.860;5.714;2022-12-18T05:02:50;-8.70;1.00
24456;DHT22;12628;50.860;5.714;2022-12-18T05:05:17;-8.80;1.00
24456;DHT22;12628;50.860;5.714;2022-12-18T05:07:46;-8.80;99.90
24456;DHT22;12628;50.860;5.714;2022-12-18T05:10:13;-8.70;1.00
24456;DHT22;12628;50.860;5.714;2022-12-18T05:12:40;-8.80;99.90
24456;DHT22;12628;50.860;5.714;2022-12-18T05:15:21;-8.80;99.90
24456;DHT22;12628;50.860;5.714;2022-12-18T05:17:48;-8.80;1.00
24456;DHT22;12628;50.860;5.714;2022-12-18T05:20:15;-8.80;99.90
24456;DHT22;12628;50.860;5.714;2022-12-18T05:22:45;-8.60;1.00
24456;DHT22;12628;50.860;5.714;2022-12-18T05:25:12;-8.60;99.90
24456;DHT22;12628;50.860;5.714;2022-12-18T05:27:39;-8.60;1.00
24456;DHT22;12628;50.860;5.714;2022-12-18T05:30:08;-8.60;99.90
24456;DHT22;12628;50.860;5.714;2022-12-18T05:32:35;-8.70;1.00
24456;DHT22;12628;50.860;5.714;2022-12-18T05:35:03;-8.60;99.90
24456;DHT22;12628;50.860;5.714;2022-12-18T05:37:30;-8.60;99.90
24456;DHT22;12628;50.860;5.714;2022-12-18T05:39:59;-8.40;1.00
24456;DHT22;12628;50.860;5.714;2022-12-18T05:42:27;-8.20;1.00
24456;DHT22;12628;50.860;5.714;2022-12-18T05:44:54;-8.20;1.00
24456;DHT22;12628;50.860;5.714;2022-12-18T05:47:21;-8.30;1.00
24456;DHT22;12628;50.860;5.714;2022-12-18T05:49:48;-8.40;99.90
24456;DHT22;12628;50.860;5.714;2022-12-18T05:52:15;-8.50;1.00
24456;DHT22;12628;50.860;5.714;2022-12-18T05:54:42;-8.30;97.50
24456;DHT22;12628;50.860;5.714;2022-12-18T05:57:11;-8.20;99.90
24456;DHT22;12628;50.860;5.714;2022-12-18T05:59:38;-8.20;1.00
24456;DHT22;12628;50.860;5.714;2022-12-18T06:02:06;-8.30;99.90
24456;DHT22;12628;50.860;5.714;2022-12-18T06:04:33;-8.60;99.90
24456;DHT22;12628;50.860;5.714;2022-12-18T06:07:00;-8.70;99.90
24456;DHT22;12628;50.860;5.714;2022-12-18T06:09:30;-8.70;1.00
24456;DHT22;12628;50.860;5.714;2022-12-18T06:11:58;-8.80;1.00
24456;DHT22;12628;50.860;5.714;2022-12-18T06:14:26;-8.80;1.00
24456;DHT22;12628;50.860;5.714;2022-12-18T06:16:54;-8.80;89.70
24456;DHT22;12628;50.860;5.714;2022-12-18T06:19:21;-8.80;1.00
24456;DHT22;12628;50.860;5.714;2022-12-18T06:21:48;-8.90;1.00
24456;DHT22;12628;50.860;5.714;2022-12-18T06:24:16;-9.00;1.00
24456;DHT22;12628;50.860;5.714;2022-12-18T06:26:43;-9.00;1.00
24456;DHT22;12628;50.860;5.714;2022-12-18T06:29:10;-8.90;1.00
24456;DHT22;12628;50.860;5.714;2022-12-18T06:31:39;-9.00;99.90
24456;DHT22;12628;50.860;5.714;2022-12-18T06:34:06;-8.90;99.90
24456;DHT22;12628;50.860;5.714;2022-12-18T06:36:33;-9.00;1.00
24456;DHT22;12628;50.860;5.714;2022-12-18T06:39:01;-9.20;74.40
24456;DHT22;12628;50.860;5.714;2022-12-18T06:41:28;-9.30;1.00
24456;DHT22;12628;50.860;5.714;2022-12-18T06:43:55;-9.30;1.00
24456;DHT22;12628;50.860;5.714;2022-12-18T06:46:24;-9.40;1.00
24456;DHT22;12628;50.860;5.714;2022-12-18T06:48:52;-9.40;1.00
24456;DHT22;12628;50.860;5.714;2022-12-18T06:51:20;-9.40;1.00
24456;DHT22;12628;50.860;5.714;2022-12-18T06:53:48;-9.40;12.40
24456;DHT22;12628;50.860;5.714;2022-12-18T06:56:16;-9.30;15.50
24456;DHT22;12628;50.860;5.714;2022-12-18T06:58:43;-9.40;1.00
24456;DHT22;12628;50.860;5.714;2022-12-18T07:01:12;-9.50;1.00
24456;DHT22;12628;50.860;5.714;2022-12-18T07:03:40;-9.50;1.00
24456;DHT22;12628;50.860;5.714;2022-12-18T07:06:15;-9.50;1.00
24456;DHT22;12628;50.860;5.714;2022-12-18T07:08:42;-9.30;1.00
24456;DHT22;12628;50.860;5.714;2022-12-18T07:11:10;-9.00;99.90
24456;DHT22;12628;50.860;5.714;2022-12-18T07:13:37;-8.80;1.00
24456;DHT22;12628;50.860;5.714;2022-12-18T07:16:06;-8.90;1.00
24456;DHT22;12628;50.860;5.714;2022-12-18T07:18:33;-8.80;99.90
24456;DHT22;12628;50.860;5.714;2022-12-18T07:21:03;-8.80;99.90
24456;DHT22;12628;50.860;5.714;2022-12-18T07:23:34;-8.80;1.00
24456;DHT22;12628;50.860;5.714;2022-12-18T07:26:02;-8.90;1.00
24456;DHT22;12628;50.860;5.714;2022-12-18T07:28:30;-8.80;1.00
24456;DHT22;12628;50.860;5.714;2022-12-18T07:30:58;-8.90;1.00
24456;DHT22;12628;50.860;5.714;2022-12-18T07:33:25;-8.90;1.00
24456;DHT22;12628;50.860;5.714;2022-12-18T07:35:52;-9.00;1.00
24456;DHT22;12628;50.860;5.714;2022-12-18T07:38:20;-9.00;1.00
24456;DHT22;12628;50.860;5.714;2022-12-18T07:40:48;-9.00;1.00
24456;DHT22;12628;50.860;5.714;2022-12-18T07:43:15;-8.80;68.20
24456;DHT22;12628;50.860;5.714;2022-12-18T07:45:43;-8.60;1.00
24456;DHT22;12628;50.860;5.714;2022-12-18T07:48:10;-8.40;99.90
24456;DHT22;12628;50.860;5.714;2022-12-18T07:50:37;-8.30;99.90
24456;DHT22;12628;50.860;5.714;2022-12-18T07:53:05;-8.20;99.90
24456;DHT22;12628;50.860;5.714;2022-12-18T07:55:32;-8.10;99.90
24456;DHT22;12628;50.860;5.714;2022-12-18T07:58:03;-8.00;1.00
24456;DHT22;12628;50.860;5.714;2022-12-18T08:00:30;-7.90;1.00
24456;DHT22;12628;50.860;5.714;2022-12-18T08:02:57;-7.80;1.00
24456;DHT22;12628;50.860;5.714;2022-12-18T08:05:24;-7.60;99.90
24456;DHT22;12628;50.860;5.714;2022-12-18T08:07:51;-7.50;99.90
24456;DHT22;12628;50.860;5.714;2022-12-18T08:10:19;-7.30;1.00
24456;DHT22;12628;50.860;5.714;2022-12-18T08:12:49;-6.90;1.00
24456;DHT22;12628;50.860;5.714;2022-12-18T08:15:18;-6.40;1.00
24456;DHT22;12628;50.860;5.714;2022-12-18T08:17:45;-6.20;99.90
24456;DHT22;12628;50.860;5.714;2022-12-18T08:20:12;-5.90;1.00
24456;DHT22;12628;50.860;5.714;2022-12-18T08:22:41;-6.00;1.00
24456;DHT22;12628;50.860;5.714;2022-12-18T08:25:08;-6.00;1.00
24456;DHT22;12628;50.860;5.714;2022-12-18T08:27:35;-5.70;1.00
24456;DHT22;12628;50.860;5.714;2022-12-18T08:30:03;-5.60;1.00
24456;DHT22;12628;50.860;5.714;2022-12-18T08:32:32;-5.10;1.00
24456;DHT22;12628;50.860;5.714;2022-12-18T08:34:59;-4.90;99.90
24456;DHT22;12628;50.860;5.714;2022-12-18T08:37:26;-4.90;99.90
24456;DHT22;12628;50.860;5.714;2022-12-18T08:39:54;-4.70;1.00
24456;DHT22;12628;50.860;5.714;2022-12-18T08:42:21;-4.70;1.00
24456;DHT22;12628;50.860;5.714;2022-12-18T08:45:07;-4.50;1.70
24456;DHT22;12628;50.860;5.714;2022-12-18T08:47:36;-4.30;1.00
24456;DHT22;12628;50.860;5.714;2022-12-18T08:50:03;-4.00;99.90
24456;DHT22;12628;50.860;5.714;2022-12-18T08:52:32;-3.70;99.90
24456;DHT22;12628;50.860;5.714;2022-12-18T08:54:59;-2.70;1.00
24456;DHT22;12628;50.860;5.714;2022-12-18T08:57:26;-1.70;99.90
24456;DHT22;12628;50.860;5.714;2022-12-18T08:59:53;-0.60;1.00
24456;DHT22;12628;50.860;5.714;2022-12-18T09:02:21;-0.20;99.90
24456;DHT22;12628;50.860;5.714;2022-12-18T09:04:49;0.40;99.90
24456;DHT22;12628;50.860;5.714;2022-12-18T09:07:17;1.00;99.90
24456;DHT22;12628;50.860;5.714;2022-12-18T09:09:44;1.10;1.00
24456;DHT22;12628;50.860;5.714;2022-12-18T09:12:11;-0.30;8.00
24456;DHT22;12628;50.860;5.714;2022-12-18T09:14:38;-0.50;99.90
24456;DHT22;12628;50.860;5.714;2022-12-18T09:17:06;-0.60;99.90
24456;DHT22;12628;50.860;5.714;2022-12-18T09:19:33;-1.30;99.90
24456;DHT22;12628;50.860;5.714;2022-12-18T09:22:02;-2.00;99.90
24456;DHT22;12628;50.860;5.714;2022-12-18T09:24:29;-2.60;1.00
24456;DHT22;12628;50.860;5.714;2022-12-18T09:26:56;-2.80;1.00
24456;DHT22;12628;50.860;5.714;2022-12-18T09:29:23;-2.70;1.00
24456;DHT22;12628;50.860;5.714;2022-12-18T09:31:51;-2.90;1.00
24456;DHT22;12628;50.860;5.714;2022-12-18T09:34:18;-3.30;1.00
24456;DHT22;12628;50.860;5.714;2022-12-18T09:36:46;-2.70;20.70
24456;DHT22;12628;50.860;5.714;2022-12-18T09:39:15;-1.50;1.00
24456;DHT22;12628;50.860;5.714;2022-12-18T09:41:45;-1.10;99.90
24456;DHT22;12628;50.860;5.714;2022-12-18T09:44:19;-0.70;99.90
24456;DHT22;12628;50.860;5.714;2022-12-18T09:46:51;-0.50;99.90
24456;DHT22;12628;50.860;5.714;2022-12-18T09:49:23;-1.30;99.90
24456;DHT22;12628;50.860;5.714;2022-12-18T09:51:53;-1.70;99.90
24456;DHT22;12628;50.860;5.714;2022-12-18T09:54:26;-1.90;1.00
24456;DHT22;12628;50.860;5.714;2022-12-18T09:56:57;-1.40;99.90
24456;DHT22;12628;50.860;5.714;2022-12-18T09:59:26;-1.10;99.90
24456;DHT22;12628;50.860;5.714;2022-12-18T10:01:56;-0.50;99.90
24456;DHT22;12628;50.860;5.714;2022-12-18T10:04:24;0.10;38.70
24456;DHT22;12628;50.860;5.714;2022-12-18T10:06:57;-0.20;1.80
24456;DHT22;12628;50.860;5.714;2022-12-18T10:09:34;-0.70;84.90
24456;DHT22;12628;50.860;5.714;2022-12-18T10:12:08;-1.00;99.90
24456;DHT22;12628;50.860;5.714;2022-12-18T10:14:42;-0.80;99.90
24456;DHT22;12628;50.860;5.714;2022-12-18T10:17:22;-0.50;99.90
24456;DHT22;12628;50.860;5.714;2022-12-18T10:19:54;-0.20;99.90
24456;DHT22;12628;50.860;5.714;2022-12-18T10:22:35;-0.30;99.90
24456;DHT22;12628;50.860;5.714;2022-12-18T10:25:15;-1.30;99.90
24456;DHT22;12628;50.860;5.714;2022-12-18T10:27:44;-1.70;99.90
24456;DHT22;12628;50.860;5.714;2022-12-18T10:30:14;-1.50;99.90
24456;DHT22;12628;50.860;5.714;2022-12-18T10:32:41;-1.70;99.90
24456;DHT22;12628;50.860;5.714;2022-12-18T10:35:17;-1.50;1.00
24456;DHT22;12628;50.860;5.714;2022-12-18T10:38:06;-0.80;99.90
24456;DHT22;12628;50.860;5.714;2022-12-18T10:40:49;-0.90;99.90
24456;DHT22;12628;50.860;5.714;2022-12-18T10:43:21;-1.60;99.90
24456;DHT22;12628;50.860;5.714;2022-12-18T10:46:14;-1.60;1.00
24456;DHT22;12628;50.860;5.714;2022-12-18T10:48:52;-1.10;1.00
24456;DHT22;12628;50.860;5.714;2022-12-18T10:51:22;-0.70;99.90
24456;DHT22;12628;50.860;5.714;2022-12-18T10:53:56;-1.10;99.90
24456;DHT22;12628;50.860;5.714;2022-12-18T10:56:27;-0.70;99.90
24456;DHT22;12628;50.860;5.714;2022-12-18T10:58:57;-0.60;99.90
24456;DHT22;12628;50.860;5.714;2022-12-18T11:01:25;-0.80;99.90
24456;DHT22;12628;50.860;5.714;2022-12-18T11:04:01;-0.90;99.90
24456;DHT22;12628;50.860;5.714;2022-12-18T11:06:29;-1.00;99.90
24456;DHT22;12628;50.860;5.714;2022-12-18T11:09:01;-1.00;99.90
24456;DHT22;12628;50.860;5.714;2022-12-18T11:11:32;-0.90;99.90
24456;DHT22;12628;50.860;5.714;2022-12-18T11:14:00;-0.70;99.90
24456;DHT22;12628;50.860;5.714;2022-12-18T11:16:32;-0.70;99.90
24456;DHT22;12628;50.860;5.714;2022-12-18T11:19:21;-0.70;99.90
24456;DHT22;12628;50.860;5.714;2022-12-18T11:21:50;-1.00;1.00
24456;DHT22;12628;50.860;5.714;2022-12-18T11:24:22;-0.80;1.00
24456;DHT22;12628;50.860;5.714;2022-12-18T11:26:53;-0.80;1.00
24456;DHT22;12628;50.860;5.714;2022-12-18T11:29:24;-0.70;1.00
24456;DHT22;12628;50.860;5.714;2022-12-18T11:32:30;-0.70;1.00
24456;DHT22;12628;50.860;5.714;2022-12-18T11:35:10;-0.80;1.00
24456;DHT22;12628;50.860;5.714;2022-12-18T11:37:40;-0.80;1.00
24456;DHT22;12628;50.860;5.714;2022-12-18T11:40:14;-0.60;1.00
24456;DHT22;12628;50.860;5.714;2022-12-18T11:42:50;-0.60;1.00
24456;DHT22;12628;50.860;5.714;2022-12-18T11:45:27;-0.80;1.00
24456;DHT22;12628;50.860;5.714;2022-12-18T11:48:00;-0.80;1.00
24456;DHT22;12628;50.860;5.714;2022-12-18T11:50:33;-1.00;1.00
24456;DHT22;12628;50.860;5.714;2022-12-18T11:53:04;-1.10;1.00
24456;DHT22;12628;50.860;5.714;2022-12-18T11:55:41;-0.90;1.00
24456;DHT22;12628;50.860;5.714;2022-12-18T11:58:16;-0.70;1.00
24456;DHT22;12628;50.860;5.714;2022-12-18T12:00:49;-0.80;1.00
24456;DHT22;12628;50.860;5.714;2022-12-18T12:03:24;-0.90;1.00
24456;DHT22;12628;50.860;5.714;2022-12-18T12:06:10;-0.80;1.00
24456;DHT22;12628;50.860;5.714;2022-12-18T12:08:53;-0.50;1.00
24456;DHT22;12628;50.860;5.714;2022-12-18T12:11:31;-0.20;1.00
24456;DHT22;12628;50.860;5.714;2022-12-18T12:14:25;0.00;1.00
24456;DHT22;12628;50.860;5.714;2022-12-18T12:16:58;0.00;1.00
24456;DHT22;12628;50.860;5.714;2022-12-18T12:19:37;0.00;1.00
24456;DHT22;12628;50.860;5.714;2022-12-18T12:22:10;0.30;1.00
24456;DHT22;12628;50.860;5.714;2022-12-18T12:24:50;0.20;1.00
24456;DHT22;12628;50.860;5.714;2022-12-18T12:27:28;0.20;1.00
24456;DHT22;12628;50.860;5.714;2022-12-18T12:30:04;0.00;1.00
24456;DHT22;12628;50.860;5.714;2022-12-18T12:32:47;0.00;1.00
24456;DHT22;12628;50.860;5.714;2022-12-18T12:35:29;0.20;1.00
24456;DHT22;12628;50.860;5.714;2022-12-18T12:38:08;0.10;1.00
24456;DHT22;12628;50.860;5.714;2022-12-18T12:40:39;0.10;1.00
24456;DHT22;12628;50.860;5.714;2022-12-18T12:43:19;0.20;1.00
24456;DHT22;12628;50.860;5.714;2022-12-18T12:45:50;0.20;1.00
24456;DHT22;12628;50.860;5.714;2022-12-18T12:48:31;0.20;1.00
24456;DHT22;12628;50.860;5.714;2022-12-18T12:51:01;0.10;1.00
24456;DHT22;12628;50.860;5.714;2022-12-18T12:53:34;0.10;1.00
24456;DHT22;12628;50.860;5.714;2022-12-18T12:56:03;0.20;1.00
24456;DHT22;12628;50.860;5.714;2022-12-18T12:58:36;0.40;1.00
24456;DHT22;12628;50.860;5.714;2022-12-18T13:01:14;0.70;1.00
24456;DHT22;12628;50.860;5.714;2022-12-18T13:03:51;0.80;1.00
24456;DHT22;12628;50.860;5.714;2022-12-18T13:06:30;0.90;1.00
24456;DHT22;12628;50.860;5.714;2022-12-18T13:08:59;1.00;1.00
24456;DHT22;12628;50.860;5.714;2022-12-18T13:11:35;1.10;1.00
24456;DHT22;12628;50.860;5.714;2022-12-18T13:14:26;1.10;1.00
24456;DHT22;12628;50.860;5.714;2022-12-18T13:17:21;1.10;1.00
24456;DHT22;12628;50.860;5.714;2022-12-18T13:20:05;1.00;1.00
24456;DHT22;12628;50.860;5.714;2022-12-18T13:22:35;1.10;1.00
24456;DHT22;12628;50.860;5.714;2022-12-18T13:25:28;1.10;1.00
24456;DHT22;12628;50.860;5.714;2022-12-18T13:28:11;1.10;1.00
24456;DHT22;12628;50.860;5.714;2022-12-18T13:30:43;1.20;1.00
24456;DHT22;12628;50.860;5.714;2022-12-18T13:36:27;1.30;1.00
24456;DHT22;12628;50.860;5.714;2022-12-18T13:39:30;1.30;99.90
24456;DHT22;12628;50.860;5.714;2022-12-18T13:42:36;1.30;99.90
24456;DHT22;12628;50.860;5.714;2022-12-18T13:45:42;1.40;1.00
24456;DHT22;12628;50.860;5.714;2022-12-18T13:48:29;1.40;1.00
24456;DHT22;12628;50.860;5.714;2022-12-18T13:51:01;1.40;1.00
24456;DHT22;12628;50.860;5.714;2022-12-18T13:53:34;1.40;1.00
24456;DHT22;12628;50.860;5.714;2022-12-18T13:56:03;1.40;1.00
24456;DHT22;12628;50.860;5.714;2022-12-18T13:58:30;1.20;1.00
24456;DHT22;12628;50.860;5.714;2022-12-18T14:00:58;1.20;1.00
24456;DHT22;12628;50.860;5.714;2022-12-18T14:03:28;1.20;1.00
24456;DHT22;12628;50.860;5.714;2022-12-18T14:06:03;1.10;1.00
24456;DHT22;12628;50.860;5.714;2022-12-18T14:08:39;0.90;1.00
24456;DHT22;12628;50.860;5.714;2022-12-18T14:11:07;0.80;99.90
24456;DHT22;12628;50.860;5.714;2022-12-18T14:13:46;0.70;99.90
24456;DHT22;12628;50.860;5.714;2022-12-18T14:16:15;0.50;99.90
24456;DHT22;12628;50.860;5.714;2022-12-18T14:18:45;0.30;1.00
24456;DHT22;12628;50.860;5.714;2022-12-18T14:21:24;0.10;1.00
24456;DHT22;12628;50.860;5.714;2022-12-18T14:24:14;0.00;99.90
24456;DHT22;12628;50.860;5.714;2022-12-18T14:26:42;0.00;99.90
24456;DHT22;12628;50.860;5.714;2022-12-18T14:29:22;0.10;99.90
24456;DHT22;12628;50.860;5.714;2022-12-18T14:32:07;0.00;99.90
24456;DHT22;12628;50.860;5.714;2022-12-18T14:34:34;0.10;99.90
24456;DHT22;12628;50.860;5.714;2022-12-18T14:37:01;0.00;99.90
24456;DHT22;12628;50.860;5.714;2022-12-18T14:39:30;0.00;99.90
24456;DHT22;12628;50.860;5.714;2022-12-18T14:41:57;0.00;99.90
24456;DHT22;12628;50.860;5.714;2022-12-18T14:44:24;0.00;99.90
24456;DHT22;12628;50.860;5.714;2022-12-18T14:46:52;0.00;99.90
24456;DHT22;12628;50.860;5.714;2022-12-18T14:49:22;0.00;99.90
24456;DHT22;12628;50.860;5.714;2022-12-18T14:51:52;0.00;99.90
24456;DHT22;12628;50.860;5.714;2022-12-18T14:54:20;0.00;99.90
24456;DHT22;12628;50.860;5.714;2022-12-18T14:56:51;-0.10;99.90
24456;DHT22;12628;50.860;5.714;2022-12-18T14:59:23;-0.10;99.90
24456;DHT22;12628;50.860;5.714;2022-12-18T15:01:58;-0.10;99.90
24456;DHT22;12628;50.860;5.714;2022-12-18T15:04:27;-0.20;99.90
24456;DHT22;12628;50.860;5.714;2022-12-18T15:07:11;-0.20;1.00
24456;DHT22;12628;50.860;5.714;2022-12-18T15:09:40;-0.20;1.00
24456;DHT22;12628;50.860;5.714;2022-12-18T15:12:25;-0.20;1.00
